createdAt,value
2022-08-09T00:01:40.346Z,24.00
2022-08-09T00:04:34.111Z,24.00
2022-08-09T00:07:03.585Z,23.90
2022-08-09T00:09:34.841Z,24.00
2022-08-09T00:12:04.957Z,24.00
2022-08-09T00:14:37.939Z,24.00
2022-08-09T00:17:05.647Z,24.00
2022-08-09T00:19:32.481Z,24.00
2022-08-09T00:22:01.283Z,24.00
2022-08-09T00:24:32.035Z,24.00
2022-08-09T00:27:00.121Z,24.00
2022-08-09T00:29:39.934Z,24.00
2022-08-09T00:32:25.296Z,24.00
2022-08-09T00:34:52.900Z,24.00
2022-08-09T00:37:19.998Z,24.00
2022-08-09T00:40:13.194Z,24.00
2022-08-09T00:44:14.883Z,24.00
2022-08-09T00:45:20.344Z,24.00
2022-08-09T00:47:47.865Z,23.90
2022-08-09T00:50:15.200Z,23.90
2022-08-09T00:52:42.783Z,23.90
2022-08-09T00:55:16.719Z,23.70
2022-08-09T00:57:59.379Z,23.70
2022-08-09T01:00:27.147Z,23.70
2022-08-09T01:03:17.195Z,23.60
2022-08-09T01:05:59.565Z,23.60
2022-08-09T01:08:59.831Z,23.50
2022-08-09T01:11:53.079Z,23.30
2022-08-09T01:14:29.218Z,23.10
2022-08-09T01:17:17.883Z,23.10
2022-08-09T01:20:08.204Z,23.10
2022-08-09T01:24:02.974Z,23.00
2022-08-09T01:26:18.885Z,23.10
2022-08-09T01:28:50.353Z,23.00
2022-08-09T01:31:23.381Z,22.90
2022-08-09T01:34:12.921Z,22.90
2022-08-09T01:36:45.049Z,22.90
2022-08-09T01:39:15.961Z,22.90
2022-08-09T01:41:53.791Z,22.90
2022-08-09T01:44:29.049Z,22.90
2022-08-09T01:46:59.896Z,23.00
2022-08-09T01:49:31.923Z,23.00
2022-08-09T01:52:14.566Z,23.10
2022-08-09T01:54:46.429Z,23.10
2022-08-09T01:57:23.790Z,23.10
2022-08-09T01:59:59.866Z,23.10
2022-08-09T02:02:32.687Z,23.00
2022-08-09T02:05:05.415Z,23.00
2022-08-09T02:08:38.808Z,22.90
2022-08-09T02:10:39.280Z,22.90
2022-08-09T02:13:09.240Z,22.80
2022-08-09T02:15:49.597Z,22.80
2022-08-09T02:18:24.043Z,22.80
2022-08-09T02:20:57.801Z,22.70
2022-08-09T02:23:42.665Z,22.70
2022-08-09T02:26:26.961Z,22.60
2022-08-09T02:29:01.711Z,22.70
2022-08-09T02:31:37.706Z,22.70
2022-08-09T02:34:40.140Z,22.70
2022-08-09T02:37:14.815Z,22.80
2022-08-09T02:39:55.026Z,22.70
2022-08-09T02:42:34.870Z,22.70
2022-08-09T02:45:12.902Z,22.70
2022-08-09T02:47:57.755Z,22.60
2022-08-09T02:50:54.342Z,22.60
2022-08-09T02:53:27.904Z,22.50
2022-08-09T02:55:58.758Z,22.50
2022-08-09T02:58:36.305Z,22.50
2022-08-09T03:01:07.688Z,22.50
2022-08-09T03:04:16.884Z,22.40
2022-08-09T03:06:27.369Z,22.20
2022-08-09T03:08:56.308Z,22.10
2022-08-09T03:12:06.628Z,22.10
2022-08-09T03:14:13.447Z,22.00
2022-08-09T03:16:45.180Z,22.10
2022-08-09T03:19:58.503Z,22.10
2022-08-09T03:22:05.386Z,22.10
2022-08-09T03:24:42.583Z,22.10
2022-08-09T03:27:21.601Z,22.10
2022-08-09T03:29:57.132Z,22.20
2022-08-09T03:32:30.567Z,22.20
2022-08-09T03:34:59.334Z,22.20
2022-08-09T03:37:55.582Z,22.10
2022-08-09T03:40:14.485Z,22.10
2022-08-09T03:42:45.659Z,22.10
2022-08-09T03:45:15.436Z,22.10
2022-08-09T03:47:46.381Z,22.10
2022-08-09T03:50:18.866Z,22.00
2022-08-09T03:52:57.562Z,22.00
2022-08-09T03:55:25.211Z,22.00
2022-08-09T03:58:06.416Z,22.00
2022-08-09T04:00:38.707Z,21.90
2022-08-09T04:03:06.850Z,21.80
2022-08-09T04:05:33.657Z,21.80
2022-08-09T04:08:07.349Z,21.80
2022-08-09T04:10:35.720Z,21.80
2022-08-09T04:13:11.338Z,21.70
2022-08-09T04:16:19.902Z,21.70
2022-08-09T04:18:26.535Z,21.50
2022-08-09T04:20:55.447Z,21.40
2022-08-09T04:23:24.877Z,21.30
2022-08-09T04:25:53.999Z,21.20
2022-08-09T04:28:34.080Z,21.10
2022-08-09T04:31:09.140Z,21.00
2022-08-09T04:33:52.406Z,20.90
2022-08-09T04:36:26.133Z,20.90
2022-08-09T04:38:54.584Z,20.80
2022-08-09T04:41:23.687Z,20.70
2022-08-09T04:44:07.368Z,20.70
2022-08-09T04:46:58.361Z,20.70
2022-08-09T04:49:53.341Z,20.70
2022-08-09T04:52:26.981Z,20.60
2022-08-09T04:54:59.429Z,20.70
2022-08-09T04:57:27.189Z,20.70
2022-08-09T05:00:14.232Z,20.60
2022-08-09T05:02:44.330Z,20.50
2022-08-09T05:05:31.533Z,20.50
2022-08-09T05:08:05.418Z,20.40
2022-08-09T05:10:34.363Z,20.50
2022-08-09T05:13:03.856Z,20.60
2022-08-09T05:15:39.124Z,20.60
2022-08-09T05:18:38.949Z,20.60
2022-08-09T05:20:57.890Z,20.60
2022-08-09T05:24:00.540Z,20.70
2022-08-09T05:26:19.095Z,20.80
2022-08-09T05:28:59.112Z,21.00
2022-08-09T05:31:44.373Z,21.00
2022-08-09T05:34:16.633Z,21.10
2022-08-09T05:36:47.306Z,20.90
2022-08-09T05:39:28.461Z,20.80
2022-08-09T05:42:01.551Z,20.70
2022-08-09T05:44:32.663Z,20.70
2022-08-09T05:47:01.463Z,20.80
2022-08-09T05:50:24.461Z,20.80
2022-08-09T05:52:19.868Z,20.80
2022-08-09T05:54:46.629Z,20.80
2022-08-09T05:57:17.607Z,20.80
2022-08-09T05:59:46.761Z,20.90
2022-08-09T06:02:17.158Z,20.90
2022-08-09T06:04:46.960Z,20.90
2022-08-09T06:07:21.461Z,20.90
2022-08-09T06:09:54.700Z,20.90
2022-08-09T06:12:29.865Z,20.90
2022-08-09T06:15:01.117Z,20.90
2022-08-09T06:17:39.763Z,21.00
2022-08-09T06:20:08.589Z,21.10
2022-08-09T06:22:36.236Z,21.20
2022-08-09T06:25:04.232Z,21.00
2022-08-09T06:27:43.072Z,21.00
2022-08-09T06:30:18.970Z,21.00
2022-08-09T06:32:59.712Z,20.90
2022-08-09T06:35:35.766Z,20.90
2022-08-09T06:38:16.331Z,20.70
2022-08-09T06:40:43.920Z,20.70
2022-08-09T06:43:11.521Z,20.70
2022-08-09T06:46:06.206Z,20.60
2022-08-09T06:48:30.160Z,20.50
2022-08-09T06:50:59.371Z,20.50
2022-08-09T06:53:27.495Z,20.50
2022-08-09T06:56:00.492Z,20.60
2022-08-09T07:00:47.654Z,20.60
2022-08-09T07:01:14.634Z,20.60
2022-08-09T07:03:52.586Z,20.70
2022-08-09T07:06:21.960Z,20.60
2022-08-09T07:08:52.297Z,20.60
2022-08-09T07:11:25.337Z,20.70
2022-08-09T07:14:05.048Z,20.70
2022-08-09T07:16:42.655Z,20.80
2022-08-09T07:19:18.681Z,20.90
2022-08-09T07:21:56.998Z,21.00
2022-08-09T07:24:40.600Z,21.00
2022-08-09T07:27:26.507Z,21.00
2022-08-09T07:30:01.764Z,21.00
2022-08-09T07:32:32.838Z,21.10
2022-08-09T07:35:02.679Z,21.10
2022-08-09T07:37:30.153Z,21.20
2022-08-09T07:40:13.094Z,21.30
2022-08-09T07:42:55.724Z,21.40
2022-08-09T07:45:39.112Z,21.50
2022-08-09T07:48:28.393Z,21.60
2022-08-09T07:51:08.991Z,21.60
2022-08-09T07:54:05.698Z,21.60
2022-08-09T07:56:44.640Z,21.60
2022-08-09T07:59:24.887Z,21.70
2022-08-09T08:02:01.042Z,21.70
2022-08-09T08:04:31.713Z,21.70
2022-08-09T08:07:00.091Z,21.80
2022-08-09T08:09:39.963Z,21.80
2022-08-09T08:12:27.773Z,21.80
2022-08-09T08:14:59.864Z,21.70
2022-08-09T08:17:52.246Z,21.60
2022-08-09T08:20:14.022Z,21.70
2022-08-09T08:22:41.826Z,21.80
2022-08-09T08:25:13.628Z,21.80
2022-08-09T08:27:43.008Z,21.90
2022-08-09T08:30:11.706Z,21.90
2022-08-09T08:32:52.928Z,22.00
2022-08-09T08:35:22.184Z,21.90
2022-08-09T08:37:59.846Z,22.00
2022-08-09T08:40:33.590Z,22.10
2022-08-09T08:43:03.291Z,22.10
2022-08-09T08:45:53.290Z,22.10
2022-08-09T08:48:22.452Z,22.10
2022-08-09T08:50:56.514Z,21.90
2022-08-09T08:53:23.937Z,21.60
2022-08-09T08:56:00.597Z,21.40
2022-08-09T08:58:29.916Z,21.30
2022-08-09T09:00:58.097Z,21.40
2022-08-09T09:03:37.667Z,21.40
2022-08-09T09:06:07.264Z,21.40
2022-08-09T09:08:42.320Z,21.30
2022-08-09T09:11:17.631Z,21.30
2022-08-09T09:13:57.331Z,21.40
2022-08-09T09:16:35.050Z,21.50
2022-08-09T09:22:11.989Z,21.70
2022-08-09T09:24:45.453Z,21.90
2022-08-09T09:28:05.014Z,21.90
2022-08-09T09:30:40.722Z,21.80
2022-08-09T09:33:15.780Z,21.70
2022-08-09T09:36:01.362Z,21.70
2022-08-09T09:38:47.936Z,21.70
2022-08-09T09:41:24.119Z,21.60
2022-08-09T09:44:11.113Z,21.70
2022-08-09T09:46:50.640Z,21.80
2022-08-09T09:49:32.082Z,21.90
2022-08-09T09:52:35.696Z,21.80
2022-08-09T09:55:28.407Z,21.70
2022-08-09T09:58:18.124Z,21.70
2022-08-09T10:00:55.792Z,21.70
2022-08-09T10:03:43.874Z,21.70
2022-08-09T10:06:12.924Z,22.00
2022-08-09T10:08:55.049Z,22.30
2022-08-09T10:11:59.105Z,22.40
2022-08-09T10:14:30.721Z,22.70
2022-08-09T10:17:50.399Z,23.20
2022-08-09T10:19:58.829Z,23.40
2022-08-09T10:22:34.581Z,23.70
2022-08-09T10:25:11.148Z,24.10
2022-08-09T10:27:56.538Z,24.50
2022-08-09T10:34:04.327Z,25.10
2022-08-09T10:36:09.458Z,25.20
2022-08-09T10:38:56.691Z,25.20
2022-08-09T10:41:24.677Z,25.20
2022-08-09T10:44:01.239Z,25.20
2022-08-09T10:46:54.779Z,25.20
2022-08-09T10:49:51.649Z,25.10
2022-08-09T10:52:42.922Z,24.90
2022-08-09T10:55:26.598Z,24.90
2022-08-09T10:58:00.092Z,24.90
2022-08-09T11:01:10.713Z,24.80
2022-08-09T11:03:51.540Z,25.00
2022-08-09T11:06:24.286Z,25.10
2022-08-09T11:08:53.143Z,25.10
2022-08-09T11:11:23.163Z,25.10
2022-08-09T11:14:27.990Z,25.10
2022-08-09T11:16:56.788Z,25.20
2022-08-09T11:20:09.772Z,25.00
2022-08-09T11:22:45.944Z,25.00
2022-08-09T11:25:16.124Z,25.00
2022-08-09T11:28:05.589Z,25.10
2022-08-09T11:30:36.061Z,25.30
2022-08-09T11:33:18.228Z,25.40
2022-08-09T11:35:55.182Z,25.60
2022-08-09T11:38:32.917Z,25.70
2022-08-09T11:41:16.548Z,25.70
2022-08-09T11:43:49.080Z,25.90
2022-08-09T11:46:26.439Z,25.80
2022-08-09T11:48:59.575Z,25.70
2022-08-09T11:53:03.411Z,25.80
2022-08-09T11:54:28.132Z,25.90
2022-08-09T11:58:00.135Z,26.00
2022-08-09T12:00:28.243Z,26.00
2022-08-09T12:02:57.753Z,26.00
2022-08-09T12:05:42.087Z,26.10
2022-08-09T12:08:21.505Z,26.10
2022-08-09T12:10:53.954Z,26.30
2022-08-09T12:14:10.106Z,26.30
2022-08-09T12:16:39.868Z,26.30
2022-08-09T12:19:09.951Z,26.40
2022-08-09T12:21:48.521Z,26.40
2022-08-09T12:24:25.664Z,26.40
2022-08-09T12:29:13.274Z,26.50
2022-08-09T12:30:02.065Z,26.50
2022-08-09T12:32:44.702Z,26.50
2022-08-09T12:35:13.408Z,26.50
2022-08-09T12:37:50.164Z,26.40
2022-08-09T12:40:21.202Z,26.30
2022-08-09T12:42:50.946Z,26.20
2022-08-09T12:45:34.324Z,26.20
2022-08-09T12:48:20.508Z,26.20
2022-08-09T12:50:57.514Z,26.10
2022-08-09T12:53:38.869Z,26.10
2022-08-09T12:56:42.959Z,26.10
2022-08-09T12:59:10.938Z,26.10
2022-08-09T13:01:46.842Z,25.80
2022-08-09T13:04:35.988Z,25.70
2022-08-09T13:07:16.505Z,25.60
2022-08-09T13:09:52.582Z,25.60
2022-08-09T13:12:22.868Z,25.40
2022-08-09T13:14:53.713Z,25.40
2022-08-09T13:17:44.104Z,25.30
2022-08-09T13:20:14.109Z,25.20
2022-08-09T13:23:01.586Z,25.20
2022-08-09T13:25:52.815Z,25.20
2022-08-09T13:28:33.881Z,25.00
2022-08-09T13:32:12.581Z,25.10
2022-08-09T13:33:55.154Z,25.20
2022-08-09T13:36:24.593Z,25.30
2022-08-09T13:41:19.498Z,25.20
2022-08-09T13:42:01.438Z,25.40
2022-08-09T13:44:29.321Z,25.50
2022-08-09T13:47:27.186Z,25.60
2022-08-09T13:49:56.112Z,25.70
2022-08-09T13:52:25.273Z,25.70
2022-08-09T13:55:00.418Z,25.70
2022-08-09T13:57:36.399Z,25.70
2022-08-09T14:00:13.217Z,25.70
2022-08-09T14:03:16.512Z,25.70
2022-08-09T14:06:01.413Z,25.70
2022-08-09T14:08:17.640Z,25.80
2022-08-09T14:10:52.610Z,25.60
2022-08-09T14:14:14.991Z,25.60
2022-08-09T14:16:11.392Z,25.60
2022-08-09T14:18:43.319Z,25.60
2022-08-09T14:21:17.790Z,25.70
2022-08-09T14:23:55.047Z,25.70
2022-08-09T14:26:31.982Z,25.50
2022-08-09T14:29:07.941Z,25.40
2022-08-09T14:31:53.911Z,25.40
2022-08-09T14:34:30.930Z,25.40
2022-08-09T14:36:59.228Z,25.30
2022-08-09T14:39:46.550Z,25.20
2022-08-09T14:42:13.645Z,25.10
2022-08-09T14:44:59.400Z,25.00
2022-08-09T14:47:45.162Z,24.90
2022-08-09T14:50:15.904Z,24.60
2022-08-09T14:52:43.319Z,24.60
2022-08-09T14:55:20.372Z,24.60
2022-08-09T14:57:48.780Z,24.50
2022-08-09T15:00:16.247Z,24.40
2022-08-09T15:02:47.506Z,24.40
2022-08-09T15:05:18.418Z,24.50
2022-08-09T15:07:56.420Z,24.50
2022-08-09T15:10:26.549Z,24.50
2022-08-09T15:12:54.680Z,24.50
2022-08-09T15:15:22.298Z,24.60
2022-08-09T15:17:52.864Z,24.60
2022-08-09T15:21:57.455Z,24.60
2022-08-09T15:24:01.873Z,24.60
2022-08-09T15:25:58.378Z,24.50
2022-08-09T15:28:28.495Z,24.40
2022-08-09T15:31:10.189Z,24.40
2022-08-09T15:34:18.326Z,24.40
2022-08-09T15:36:29.163Z,24.40
2022-08-09T15:39:00.571Z,24.50
2022-08-09T15:41:32.147Z,24.60
2022-08-09T15:44:01.996Z,24.60
2022-08-09T15:46:32.565Z,24.80
2022-08-09T15:49:22.453Z,24.90
2022-08-09T15:52:04.740Z,25.00
2022-08-09T15:54:52.607Z,25.20
2022-08-09T15:57:35.218Z,25.30
2022-08-09T16:00:14.810Z,25.30
2022-08-09T16:02:53.577Z,25.40
2022-08-09T16:05:23.382Z,25.40
2022-08-09T16:07:50.556Z,25.40
2022-08-09T16:10:55.335Z,25.30
2022-08-09T16:13:20.974Z,25.20
2022-08-09T16:16:10.255Z,25.10
2022-08-09T16:18:44.757Z,25.00
2022-08-09T16:21:17.533Z,24.80
2022-08-09T16:24:01.682Z,24.70
2022-08-09T16:26:35.101Z,24.60
2022-08-09T16:29:12.536Z,24.60
2022-08-09T16:32:12.679Z,24.70
2022-08-09T16:34:29.448Z,24.80
2022-08-09T16:37:16.218Z,24.90
2022-08-09T16:39:54.811Z,25.10
2022-08-09T16:42:30.143Z,25.20
2022-08-09T16:44:56.900Z,25.20
2022-08-09T16:48:41.796Z,25.30
2022-08-09T16:50:31.899Z,25.40
2022-08-09T16:52:57.524Z,25.50
2022-08-09T16:55:25.020Z,25.50
2022-08-09T16:58:09.999Z,25.40
2022-08-09T17:00:42.911Z,25.30
2022-08-09T17:03:20.980Z,25.20
2022-08-09T17:06:07.519Z,25.10
2022-08-09T17:08:58.926Z,25.00
2022-08-09T17:11:32.977Z,24.90
2022-08-09T17:14:08.984Z,24.80
2022-08-09T17:16:54.647Z,24.70
2022-08-09T17:19:21.606Z,24.60
2022-08-09T17:21:55.506Z,24.50
2022-08-09T17:24:30.688Z,24.30
2022-08-09T17:26:58.434Z,24.00
2022-08-09T17:29:31.546Z,24.00
2022-08-09T17:32:01.923Z,24.00
2022-08-09T17:35:04.401Z,23.90
2022-08-09T17:37:19.587Z,23.70
2022-08-09T17:39:53.309Z,23.60
2022-08-09T17:42:40.813Z,23.60
2022-08-09T17:45:23.684Z,23.60
2022-08-09T17:48:02.856Z,23.60
2022-08-09T17:50:36.867Z,23.70
2022-08-09T17:53:19.251Z,23.60
2022-08-09T17:55:48.690Z,23.50
2022-08-09T17:58:17.386Z,23.40
2022-08-09T18:00:48.266Z,23.20
2022-08-09T18:03:15.804Z,23.20
2022-08-09T18:05:45.461Z,23.20
2022-08-09T18:08:22.116Z,23.20
2022-08-09T18:11:02.392Z,23.10
2022-08-09T18:13:43.118Z,22.90
2022-08-09T18:16:30.196Z,22.90
2022-08-09T18:19:03.989Z,22.80
2022-08-09T18:21:46.354Z,22.80
2022-08-09T18:24:17.124Z,22.80
2022-08-09T18:26:46.650Z,22.70
2022-08-09T18:30:40.884Z,22.70
2022-08-09T18:32:05.010Z,22.80
2022-08-09T18:34:35.138Z,22.80
2022-08-09T18:37:04.484Z,22.90
2022-08-09T18:39:39.595Z,22.90
2022-08-09T18:42:09.147Z,22.90
2022-08-09T18:44:36.095Z,23.00
2022-08-09T18:47:07.404Z,23.00
2022-08-09T18:49:43.723Z,23.00
2022-08-09T18:52:16.005Z,23.00
2022-08-09T18:54:52.822Z,23.00
2022-08-09T18:57:22.752Z,23.10
2022-08-09T18:59:57.733Z,23.10
2022-08-09T19:02:32.097Z,23.10
2022-08-09T19:05:14.237Z,23.10
2022-08-09T19:08:04.227Z,23.10
2022-08-09T19:10:37.848Z,23.10
2022-08-09T19:13:22.040Z,23.00
2022-08-09T19:15:56.888Z,23.00
2022-08-09T19:18:35.681Z,23.00
2022-08-09T19:21:09.407Z,23.00
2022-08-09T19:24:32.521Z,23.00
2022-08-09T19:26:29.503Z,23.00
2022-08-09T19:29:01.736Z,23.00
2022-08-09T19:31:43.898Z,23.00
2022-08-09T19:34:21.262Z,22.90
2022-08-09T19:36:51.929Z,22.80
2022-08-09T19:39:20.742Z,22.80
2022-08-09T19:41:57.182Z,22.80
2022-08-09T19:44:25.040Z,22.80
2022-08-09T19:46:53.267Z,22.80
2022-08-09T19:50:07.437Z,22.90
2022-08-09T19:52:08.484Z,22.90
2022-08-09T19:54:35.629Z,22.80
2022-08-09T19:57:02.773Z,22.90
2022-08-09T19:59:58.901Z,22.90
2022-08-09T20:04:08.591Z,22.90
2022-08-09T20:05:11.532Z,22.90
2022-08-09T20:07:56.622Z,22.90
2022-08-09T20:10:34.755Z,22.90
2022-08-09T20:13:05.267Z,22.90
2022-08-09T20:16:33.819Z,22.80
2022-08-09T20:18:20.247Z,22.80
2022-08-09T20:20:50.514Z,22.80
2022-08-09T20:23:23.600Z,22.70
2022-08-09T20:25:53.416Z,22.60
2022-08-09T20:28:27.405Z,22.60
2022-08-09T20:31:04.564Z,22.60
2022-08-09T20:33:40.926Z,22.60
2022-08-09T20:36:09.140Z,22.50
2022-08-09T20:38:57.407Z,22.50
2022-08-09T20:41:35.073Z,22.50
2022-08-09T20:44:09.781Z,22.50
2022-08-09T20:46:43.233Z,22.40
2022-08-09T20:49:16.124Z,22.40
2022-08-09T20:51:44.261Z,22.40
2022-08-09T20:54:16.547Z,22.40
2022-08-09T20:56:47.299Z,22.40
2022-08-09T20:59:17.783Z,22.40
2022-08-09T21:02:04.616Z,22.50
2022-08-09T21:05:54.480Z,22.40
2022-08-09T21:07:19.120Z,22.50
2022-08-09T21:09:56.112Z,22.50
2022-08-09T21:15:17.681Z,22.50
2022-08-09T21:18:21.966Z,22.50
2022-08-09T21:20:37.583Z,22.50
2022-08-09T21:23:12.961Z,22.40
2022-08-09T21:25:55.727Z,22.30
2022-08-09T21:28:34.376Z,22.20
2022-08-09T21:31:16.853Z,22.10
2022-08-09T21:33:52.139Z,22.10
2022-08-09T21:36:27.735Z,22.00
2022-08-09T21:38:58.623Z,21.90
2022-08-09T21:42:03.589Z,21.90
2022-08-09T21:44:32.711Z,21.80
2022-08-09T21:47:04.131Z,21.70
2022-08-09T21:49:40.126Z,21.70
2022-08-09T21:52:17.111Z,21.70
2022-08-09T21:55:02.827Z,21.60
2022-08-09T21:57:38.551Z,21.50
2022-08-09T22:00:31.817Z,21.50
2022-08-09T22:03:06.821Z,21.60
2022-08-09T22:05:41.714Z,21.60
2022-08-09T22:08:14.627Z,21.60
2022-08-09T22:11:01.063Z,21.60
2022-08-09T22:13:34.753Z,21.50
2022-08-09T22:16:07.912Z,21.60
2022-08-09T22:18:37.238Z,21.60
2022-08-09T22:21:09.600Z,21.60
2022-08-09T22:24:01.272Z,21.50
2022-08-09T22:26:34.859Z,21.50
2022-08-09T22:29:07.189Z,21.40
2022-08-09T22:31:35.748Z,21.40
2022-08-09T22:34:03.116Z,21.40
2022-08-09T22:36:37.395Z,21.40
2022-08-09T22:39:47.153Z,21.40
2022-08-09T22:42:01.519Z,21.30
2022-08-09T22:44:29.841Z,21.20
2022-08-09T22:48:10.456Z,21.20
2022-08-09T22:49:52.271Z,21.10
2022-08-09T22:52:21.096Z,21.10
2022-08-09T22:54:51.226Z,21.20
2022-08-09T22:57:18.093Z,21.20
2022-08-09T22:59:55.145Z,21.20
2022-08-09T23:02:27.379Z,21.20
2022-08-09T23:04:54.837Z,21.20
2022-08-09T23:08:23.047Z,21.20
2022-08-09T23:10:31.184Z,21.20
2022-08-09T23:12:59.149Z,21.30
2022-08-09T23:15:27.772Z,21.40
2022-08-09T23:17:55.837Z,21.40
2022-08-09T23:20:25.077Z,21.50
2022-08-09T23:22:52.037Z,21.50
2022-08-09T23:25:18.822Z,21.50
2022-08-09T23:27:57.396Z,21.50
2022-08-09T23:30:32.911Z,21.60
2022-08-09T23:32:59.697Z,21.60
2022-08-09T23:35:26.586Z,21.60
2022-08-09T23:37:53.340Z,21.60
2022-08-09T23:40:20.213Z,21.50
2022-08-09T23:42:46.972Z,21.50
2022-08-09T23:45:36.893Z,21.40
2022-08-09T23:48:02.519Z,21.50
2022-08-09T23:50:31.200Z,21.50
2022-08-09T23:52:57.992Z,21.30
2022-08-09T23:55:26.041Z,21.30
2022-08-09T23:58:06.745Z,21.10
